sensor_id;sensor_type;location;lat;lon;timestamp;P1;durP1;ratioP1;P2;durP2;ratioP2
11139;SDS011;5624;49.388;11.350;2023-01-23T00:02:17;17.03;;;9.80;;
11139;SDS011;5624;49.388;11.350;2023-01-23T00:04:42;17.27;;;10.17;;
11139;SDS011;5624;49.388;11.350;2023-01-23T00:07:08;15.47;;;9.77;;
11139;SDS011;5624;49.388;11.350;2023-01-23T00:09:34;18.03;;;10.57;;
11139;SDS011;5624;49.388;11.350;2023-01-23T00:11:59;17.63;;;10.17;;
11139;SDS011;5624;49.388;11.350;2023-01-23T00:14:25;15.43;;;9.50;;
11139;SDS011;5624;49.388;11.350;2023-01-23T00:16:51;17.80;;;9.87;;
11139;SDS011;5624;49.388;11.350;2023-01-23T00:19:17;18.37;;;9.57;;
11139;SDS011;5624;49.388;11.350;2023-01-23T00:21:43;18.27;;;10.53;;
11139;SDS011;5624;49.388;11.350;2023-01-23T00:24:09;18.10;;;9.67;;
11139;SDS011;5624;49.388;11.350;2023-01-23T00:26:36;19.60;;;12.40;;
11139;SDS011;5624;49.388;11.350;2023-01-23T00:29:02;18.70;;;12.73;;
11139;SDS011;5624;49.388;11.350;2023-01-23T00:31:37;19.83;;;13.80;;
11139;SDS011;5624;49.388;11.350;2023-01-23T00:34:07;19.67;;;13.53;;
11139;SDS011;5624;49.388;11.350;2023-01-23T00:36:37;21.40;;;14.63;;
11139;SDS011;5624;49.388;11.350;2023-01-23T00:39:06;22.53;;;15.63;;
11139;SDS011;5624;49.388;11.350;2023-01-23T00:41:45;20.63;;;10.80;;
11139;SDS011;5624;49.388;11.350;2023-01-23T00:44:11;20.33;;;11.33;;
11139;SDS011;5624;49.388;11.350;2023-01-23T00:46:37;20.57;;;14.90;;
11139;SDS011;5624;49.388;11.350;2023-01-23T00:49:03;21.10;;;14.93;;
11139;SDS011;5624;49.388;11.350;2023-01-23T00:51:29;20.87;;;13.87;;
11139;SDS011;5624;49.388;11.350;2023-01-23T00:53:54;22.00;;;14.47;;
11139;SDS011;5624;49.388;11.350;2023-01-23T00:56:20;18.17;;;13.63;;
11139;SDS011;5624;49.388;11.350;2023-01-23T00:58:46;20.83;;;13.83;;
11139;SDS011;5624;49.388;11.350;2023-01-23T01:01:12;19.80;;;13.97;;
11139;SDS011;5624;49.388;11.350;2023-01-23T01:03:38;23.53;;;15.13;;
11139;SDS011;5624;49.388;11.350;2023-01-23T01:06:04;21.97;;;15.47;;
11139;SDS011;5624;49.388;11.350;2023-01-23T01:08:30;22.90;;;14.00;;
11139;SDS011;5624;49.388;11.350;2023-01-23T01:10:56;18.63;;;10.83;;
11139;SDS011;5624;49.388;11.350;2023-01-23T01:13:21;22.10;;;14.87;;
11139;SDS011;5624;49.388;11.350;2023-01-23T01:15:48;22.03;;;15.77;;
11139;SDS011;5624;49.388;11.350;2023-01-23T01:18:15;17.87;;;10.87;;
11139;SDS011;5624;49.388;11.350;2023-01-23T01:20:42;20.03;;;14.77;;
11139;SDS011;5624;49.388;11.350;2023-01-23T01:23:08;17.57;;;9.53;;
11139;SDS011;5624;49.388;11.350;2023-01-23T01:25:34;22.93;;;10.77;;
11139;SDS011;5624;49.388;11.350;2023-01-23T01:28:00;21.17;;;14.20;;
11139;SDS011;5624;49.388;11.350;2023-01-23T01:30:26;21.17;;;14.87;;
11139;SDS011;5624;49.388;11.350;2023-01-23T01:32:53;20.33;;;13.80;;
11139;SDS011;5624;49.388;11.350;2023-01-23T01:35:19;23.33;;;14.47;;
11139;SDS011;5624;49.388;11.350;2023-01-23T01:37:45;22.30;;;14.47;;
11139;SDS011;5624;49.388;11.350;2023-01-23T01:40:16;19.97;;;11.10;;
11139;SDS011;5624;49.388;11.350;2023-01-23T01:42:44;21.07;;;12.27;;
11139;SDS011;5624;49.388;11.350;2023-01-23T01:48:23;20.37;;;10.67;;
11139;SDS011;5624;49.388;11.350;2023-01-23T01:50:50;20.23;;;10.67;;
11139;SDS011;5624;49.388;11.350;2023-01-23T01:53:17;20.07;;;11.73;;
11139;SDS011;5624;49.388;11.350;2023-01-23T01:55:45;21.53;;;12.10;;
11139;SDS011;5624;49.388;11.350;2023-01-23T01:58:11;20.60;;;10.87;;
11139;SDS011;5624;49.388;11.350;2023-01-23T02:00:38;18.33;;;10.10;;
11139;SDS011;5624;49.388;11.350;2023-01-23T02:03:04;20.27;;;10.53;;
11139;SDS011;5624;49.388;11.350;2023-01-23T02:05:31;16.90;;;10.67;;
11139;SDS011;5624;49.388;11.350;2023-01-23T02:08:12;18.87;;;10.63;;
11139;SDS011;5624;49.388;11.350;2023-01-23T02:10:50;20.13;;;13.80;;
11139;SDS011;5624;49.388;11.350;2023-01-23T02:15:45;19.73;;;13.17;;
11139;SDS011;5624;49.388;11.350;2023-01-23T02:18:11;18.60;;;10.80;;
11139;SDS011;5624;49.388;11.350;2023-01-23T02:20:37;17.83;;;10.47;;
11139;SDS011;5624;49.388;11.350;2023-01-23T02:23:08;22.37;;;13.40;;
11139;SDS011;5624;49.388;11.350;2023-01-23T02:28:10;21.40;;;12.73;;
11139;SDS011;5624;49.388;11.350;2023-01-23T02:30:36;15.60;;;9.07;;
11139;SDS011;5624;49.388;11.350;2023-01-23T02:33:07;21.93;;;10.50;;
11139;SDS011;5624;49.388;11.350;2023-01-23T02:35:54;17.23;;;10.90;;
11139;SDS011;5624;49.388;11.350;2023-01-23T02:38:21;18.50;;;9.83;;
11139;SDS011;5624;49.388;11.350;2023-01-23T02:40:49;17.47;;;10.27;;
11139;SDS011;5624;49.388;11.350;2023-01-23T02:43:16;16.90;;;11.63;;
11139;SDS011;5624;49.388;11.350;2023-01-23T02:45:46;21.97;;;11.50;;
11139;SDS011;5624;49.388;11.350;2023-01-23T02:48:12;22.60;;;12.27;;
11139;SDS011;5624;49.388;11.350;2023-01-23T02:50:38;16.70;;;10.70;;
11139;SDS011;5624;49.388;11.350;2023-01-23T02:53:04;18.53;;;11.80;;
11139;SDS011;5624;49.388;11.350;2023-01-23T02:55:30;18.90;;;11.43;;
11139;SDS011;5624;49.388;11.350;2023-01-23T02:57:58;19.80;;;11.17;;
11139;SDS011;5624;49.388;11.350;2023-01-23T03:00:44;17.93;;;11.00;;
11139;SDS011;5624;49.388;11.350;2023-01-23T03:03:11;18.13;;;10.80;;
11139;SDS011;5624;49.388;11.350;2023-01-23T03:05:37;23.87;;;11.77;;
11139;SDS011;5624;49.388;11.350;2023-01-23T03:08:03;17.67;;;10.23;;
11139;SDS011;5624;49.388;11.350;2023-01-23T03:10:29;16.50;;;10.23;;
11139;SDS011;5624;49.388;11.350;2023-01-23T03:12:55;20.00;;;11.83;;
11139;SDS011;5624;49.388;11.350;2023-01-23T03:15:25;18.10;;;10.43;;
11139;SDS011;5624;49.388;11.350;2023-01-23T03:17:51;21.97;;;11.80;;
11139;SDS011;5624;49.388;11.350;2023-01-23T03:20:17;18.50;;;10.50;;
11139;SDS011;5624;49.388;11.350;2023-01-23T03:22:43;20.93;;;13.23;;
11139;SDS011;5624;49.388;11.350;2023-01-23T03:25:10;15.63;;;11.23;;
11139;SDS011;5624;49.388;11.350;2023-01-23T03:27:36;15.90;;;11.20;;
11139;SDS011;5624;49.388;11.350;2023-01-23T03:30:02;15.40;;;8.23;;
11139;SDS011;5624;49.388;11.350;2023-01-23T03:32:37;13.00;;;7.90;;
11139;SDS011;5624;49.388;11.350;2023-01-23T03:35:07;17.20;;;11.40;;
11139;SDS011;5624;49.388;11.350;2023-01-23T03:37:34;16.40;;;8.33;;
11139;SDS011;5624;49.388;11.350;2023-01-23T03:40:00;16.60;;;8.80;;
11139;SDS011;5624;49.388;11.350;2023-01-23T03:42:45;13.33;;;8.67;;
11139;SDS011;5624;49.388;11.350;2023-01-23T03:45:11;16.00;;;8.77;;
11139;SDS011;5624;49.388;11.350;2023-01-23T03:47:36;20.57;;;9.20;;
11139;SDS011;5624;49.388;11.350;2023-01-23T03:50:02;16.93;;;9.20;;
11139;SDS011;5624;49.388;11.350;2023-01-23T03:52:28;17.90;;;11.97;;
11139;SDS011;5624;49.388;11.350;2023-01-23T03:54:53;19.23;;;12.57;;
11139;SDS011;5624;49.388;11.350;2023-01-23T03:57:19;17.93;;;11.97;;
11139;SDS011;5624;49.388;11.350;2023-01-23T03:59:44;13.37;;;8.30;;
11139;SDS011;5624;49.388;11.350;2023-01-23T04:02:10;11.67;;;7.80;;
11139;SDS011;5624;49.388;11.350;2023-01-23T04:04:36;14.83;;;7.03;;
11139;SDS011;5624;49.388;11.350;2023-01-23T04:07:01;13.33;;;7.40;;
11139;SDS011;5624;49.388;11.350;2023-01-23T04:09:27;17.60;;;11.33;;
11139;SDS011;5624;49.388;11.350;2023-01-23T04:11:53;16.90;;;11.57;;
11139;SDS011;5624;49.388;11.350;2023-01-23T04:14:20;15.27;;;11.20;;
11139;SDS011;5624;49.388;11.350;2023-01-23T04:16:46;15.97;;;11.33;;
11139;SDS011;5624;49.388;11.350;2023-01-23T04:19:11;16.63;;;11.63;;
11139;SDS011;5624;49.388;11.350;2023-01-23T04:21:37;16.80;;;11.57;;
11139;SDS011;5624;49.388;11.350;2023-01-23T04:24:03;18.90;;;12.13;;
11139;SDS011;5624;49.388;11.350;2023-01-23T04:26:29;18.07;;;9.97;;
11139;SDS011;5624;49.388;11.350;2023-01-23T04:28:54;16.90;;;9.63;;
11139;SDS011;5624;49.388;11.350;2023-01-23T04:31:20;16.93;;;10.23;;
11139;SDS011;5624;49.388;11.350;2023-01-23T04:33:45;17.87;;;9.10;;
11139;SDS011;5624;49.388;11.350;2023-01-23T04:36:11;18.13;;;10.30;;
11139;SDS011;5624;49.388;11.350;2023-01-23T04:38:37;17.33;;;9.27;;
11139;SDS011;5624;49.388;11.350;2023-01-23T04:41:03;16.73;;;8.77;;
11139;SDS011;5624;49.388;11.350;2023-01-23T04:43:28;14.73;;;7.87;;
11139;SDS011;5624;49.388;11.350;2023-01-23T04:45:54;15.20;;;11.13;;
11139;SDS011;5624;49.388;11.350;2023-01-23T04:48:21;15.90;;;9.63;;
11139;SDS011;5624;49.388;11.350;2023-01-23T04:50:48;13.73;;;8.70;;
11139;SDS011;5624;49.388;11.350;2023-01-23T04:53:14;14.17;;;8.73;;
11139;SDS011;5624;49.388;11.350;2023-01-23T04:55:39;16.77;;;8.47;;
11139;SDS011;5624;49.388;11.350;2023-01-23T04:58:05;14.43;;;8.30;;
11139;SDS011;5624;49.388;11.350;2023-01-23T05:00:31;16.30;;;9.40;;
11139;SDS011;5624;49.388;11.350;2023-01-23T05:02:56;14.20;;;7.67;;
11139;SDS011;5624;49.388;11.350;2023-01-23T05:05:22;16.07;;;9.77;;
11139;SDS011;5624;49.388;11.350;2023-01-23T05:07:48;15.80;;;9.43;;
11139;SDS011;5624;49.388;11.350;2023-01-23T05:10:15;16.17;;;9.33;;
11139;SDS011;5624;49.388;11.350;2023-01-23T05:12:41;16.73;;;9.43;;
11139;SDS011;5624;49.388;11.350;2023-01-23T05:15:07;14.63;;;9.97;;
11139;SDS011;5624;49.388;11.350;2023-01-23T05:17:33;18.13;;;9.87;;
11139;SDS011;5624;49.388;11.350;2023-01-23T05:19:59;19.33;;;10.27;;
11139;SDS011;5624;49.388;11.350;2023-01-23T05:22:24;18.73;;;12.27;;
11139;SDS011;5624;49.388;11.350;2023-01-23T05:24:50;18.43;;;10.67;;
11139;SDS011;5624;49.388;11.350;2023-01-23T05:27:16;18.50;;;12.70;;
11139;SDS011;5624;49.388;11.350;2023-01-23T05:29:42;19.37;;;10.77;;
11139;SDS011;5624;49.388;11.350;2023-01-23T05:32:07;19.70;;;10.50;;
11139;SDS011;5624;49.388;11.350;2023-01-23T05:34:33;17.50;;;8.13;;
11139;SDS011;5624;49.388;11.350;2023-01-23T05:36:58;16.33;;;9.57;;
11139;SDS011;5624;49.388;11.350;2023-01-23T05:39:24;22.50;;;13.97;;
11139;SDS011;5624;49.388;11.350;2023-01-23T05:41:50;18.20;;;12.13;;
11139;SDS011;5624;49.388;11.350;2023-01-23T05:44:15;19.83;;;13.97;;
11139;SDS011;5624;49.388;11.350;2023-01-23T05:46:41;17.60;;;12.50;;
11139;SDS011;5624;49.388;11.350;2023-01-23T05:49:06;18.90;;;11.70;;
11139;SDS011;5624;49.388;11.350;2023-01-23T05:51:32;18.83;;;12.53;;
11139;SDS011;5624;49.388;11.350;2023-01-23T05:53:58;18.17;;;10.10;;
11139;SDS011;5624;49.388;11.350;2023-01-23T05:56:25;15.80;;;9.37;;
11139;SDS011;5624;49.388;11.350;2023-01-23T05:58:50;15.83;;;9.73;;
11139;SDS011;5624;49.388;11.350;2023-01-23T06:01:16;21.17;;;13.80;;
11139;SDS011;5624;49.388;11.350;2023-01-23T06:03:43;18.23;;;12.60;;
11139;SDS011;5624;49.388;11.350;2023-01-23T06:06:09;21.00;;;14.23;;
11139;SDS011;5624;49.388;11.350;2023-01-23T06:08:34;23.10;;;15.20;;
11139;SDS011;5624;49.388;11.350;2023-01-23T06:11:00;21.63;;;11.40;;
11139;SDS011;5624;49.388;11.350;2023-01-23T06:13:26;21.70;;;10.77;;
11139;SDS011;5624;49.388;11.350;2023-01-23T06:15:52;18.30;;;12.40;;
11139;SDS011;5624;49.388;11.350;2023-01-23T06:18:18;19.40;;;13.80;;
11139;SDS011;5624;49.388;11.350;2023-01-23T06:20:44;16.60;;;8.80;;
11139;SDS011;5624;49.388;11.350;2023-01-23T06:23:10;21.67;;;10.90;;
11139;SDS011;5624;49.388;11.350;2023-01-23T06:25:36;17.80;;;10.37;;
11139;SDS011;5624;49.388;11.350;2023-01-23T06:28:02;19.13;;;10.70;;
11139;SDS011;5624;49.388;11.350;2023-01-23T06:30:28;18.70;;;10.07;;
11139;SDS011;5624;49.388;11.350;2023-01-23T06:32:53;19.23;;;11.87;;
11139;SDS011;5624;49.388;11.350;2023-01-23T06:35:19;20.03;;;10.80;;
11139;SDS011;5624;49.388;11.350;2023-01-23T06:37:45;16.13;;;10.70;;
11139;SDS011;5624;49.388;11.350;2023-01-23T06:40:11;17.60;;;10.93;;
11139;SDS011;5624;49.388;11.350;2023-01-23T06:42:37;18.80;;;10.60;;
11139;SDS011;5624;49.388;11.350;2023-01-23T06:45:04;20.57;;;11.27;;
11139;SDS011;5624;49.388;11.350;2023-01-23T06:47:31;20.60;;;12.03;;
11139;SDS011;5624;49.388;11.350;2023-01-23T06:49:56;19.07;;;13.23;;
11139;SDS011;5624;49.388;11.350;2023-01-23T06:52:22;18.13;;;10.70;;
11139;SDS011;5624;49.388;11.350;2023-01-23T06:54:47;17.40;;;9.60;;
11139;SDS011;5624;49.388;11.350;2023-01-23T06:57:13;19.67;;;10.70;;
11139;SDS011;5624;49.388;11.350;2023-01-23T06:59:39;15.83;;;10.87;;
11139;SDS011;5624;49.388;11.350;2023-01-23T07:02:05;18.77;;;9.67;;
11139;SDS011;5624;49.388;11.350;2023-01-23T07:04:31;15.33;;;8.93;;
11139;SDS011;5624;49.388;11.350;2023-01-23T07:06:57;19.00;;;7.93;;
11139;SDS011;5624;49.388;11.350;2023-01-23T07:09:23;19.13;;;10.40;;
11139;SDS011;5624;49.388;11.350;2023-01-23T07:11:48;21.07;;;9.87;;
11139;SDS011;5624;49.388;11.350;2023-01-23T07:14:14;16.17;;;10.40;;
11139;SDS011;5624;49.388;11.350;2023-01-23T07:16:39;16.43;;;9.33;;
11139;SDS011;5624;49.388;11.350;2023-01-23T07:19:05;15.73;;;9.77;;
11139;SDS011;5624;49.388;11.350;2023-01-23T07:21:31;17.10;;;10.00;;
11139;SDS011;5624;49.388;11.350;2023-01-23T07:23:57;18.60;;;10.33;;
11139;SDS011;5624;49.388;11.350;2023-01-23T07:26:23;18.03;;;10.60;;
11139;SDS011;5624;49.388;11.350;2023-01-23T07:28:48;19.33;;;10.20;;
11139;SDS011;5624;49.388;11.350;2023-01-23T07:31:14;17.23;;;9.30;;
11139;SDS011;5624;49.388;11.350;2023-01-23T07:33:40;18.70;;;10.17;;
11139;SDS011;5624;49.388;11.350;2023-01-23T07:36:06;19.87;;;9.87;;
11139;SDS011;5624;49.388;11.350;2023-01-23T07:38:32;18.23;;;10.30;;
11139;SDS011;5624;49.388;11.350;2023-01-23T07:40:58;21.07;;;12.87;;
11139;SDS011;5624;49.388;11.350;2023-01-23T07:43:24;20.83;;;12.30;;
11139;SDS011;5624;49.388;11.350;2023-01-23T07:45:50;18.93;;;13.57;;
11139;SDS011;5624;49.388;11.350;2023-01-23T07:48:15;19.13;;;10.27;;
11139;SDS011;5624;49.388;11.350;2023-01-23T07:50:42;21.77;;;11.50;;
11139;SDS011;5624;49.388;11.350;2023-01-23T07:53:08;19.27;;;13.63;;
11139;SDS011;5624;49.388;11.350;2023-01-23T07:55:33;18.60;;;9.77;;
11139;SDS011;5624;49.388;11.350;2023-01-23T07:58:02;25.67;;;11.33;;
11139;SDS011;5624;49.388;11.350;2023-01-23T08:00:27;20.07;;;11.17;;
11139;SDS011;5624;49.388;11.350;2023-01-23T08:02:53;17.93;;;9.80;;
11139;SDS011;5624;49.388;11.350;2023-01-23T08:05:20;21.23;;;12.20;;
11139;SDS011;5624;49.388;11.350;2023-01-23T08:07:45;18.90;;;10.43;;
11139;SDS011;5624;49.388;11.350;2023-01-23T08:10:11;17.57;;;10.33;;
11139;SDS011;5624;49.388;11.350;2023-01-23T08:12:37;17.60;;;9.90;;
11139;SDS011;5624;49.388;11.350;2023-01-23T08:15:02;18.07;;;9.70;;
11139;SDS011;5624;49.388;11.350;2023-01-23T08:17:28;15.63;;;10.00;;
11139;SDS011;5624;49.388;11.350;2023-01-23T08:19:54;15.73;;;9.70;;
11139;SDS011;5624;49.388;11.350;2023-01-23T08:22:20;18.27;;;13.30;;
11139;SDS011;5624;49.388;11.350;2023-01-23T08:24:45;25.10;;;13.07;;
11139;SDS011;5624;49.388;11.350;2023-01-23T08:27:12;18.47;;;9.53;;
11139;SDS011;5624;49.388;11.350;2023-01-23T08:29:38;17.70;;;10.37;;
11139;SDS011;5624;49.388;11.350;2023-01-23T08:32:03;12.83;;;8.57;;
11139;SDS011;5624;49.388;11.350;2023-01-23T08:34:29;17.33;;;9.97;;
11139;SDS011;5624;49.388;11.350;2023-01-23T08:36:55;15.50;;;8.93;;
11139;SDS011;5624;49.388;11.350;2023-01-23T08:39:21;13.03;;;8.37;;
11139;SDS011;5624;49.388;11.350;2023-01-23T08:41:48;16.87;;;9.63;;
11139;SDS011;5624;49.388;11.350;2023-01-23T08:44:14;18.13;;;8.80;;
11139;SDS011;5624;49.388;11.350;2023-01-23T08:46:40;13.97;;;7.77;;
11139;SDS011;5624;49.388;11.350;2023-01-23T08:49:07;15.17;;;8.77;;
11139;SDS011;5624;49.388;11.350;2023-01-23T08:51:33;13.53;;;8.30;;
11139;SDS011;5624;49.388;11.350;2023-01-23T08:53:59;14.47;;;8.47;;
11139;SDS011;5624;49.388;11.350;2023-01-23T08:56:24;17.20;;;9.77;;
11139;SDS011;5624;49.388;11.350;2023-01-23T08:58:50;16.70;;;9.63;;
11139;SDS011;5624;49.388;11.350;2023-01-23T09:01:17;15.43;;;9.77;;
11139;SDS011;5624;49.388;11.350;2023-01-23T09:03:44;14.60;;;8.60;;
11139;SDS011;5624;49.388;11.350;2023-01-23T09:06:11;11.73;;;6.93;;
11139;SDS011;5624;49.388;11.350;2023-01-23T09:08:37;14.37;;;9.77;;
11139;SDS011;5624;49.388;11.350;2023-01-23T09:11:03;16.93;;;8.77;;
11139;SDS011;5624;49.388;11.350;2023-01-23T09:13:30;17.03;;;9.23;;
11139;SDS011;5624;49.388;11.350;2023-01-23T09:15:56;14.77;;;9.37;;
11139;SDS011;5624;49.388;11.350;2023-01-23T09:18:22;14.90;;;8.10;;
11139;SDS011;5624;49.388;11.350;2023-01-23T09:20:49;15.77;;;9.13;;
11139;SDS011;5624;49.388;11.350;2023-01-23T09:23:15;20.37;;;11.13;;
11139;SDS011;5624;49.388;11.350;2023-01-23T09:25:41;17.43;;;9.23;;
11139;SDS011;5624;49.388;11.350;2023-01-23T09:28:06;15.43;;;8.77;;
11139;SDS011;5624;49.388;11.350;2023-01-23T09:30:32;15.90;;;9.27;;
11139;SDS011;5624;49.388;11.350;2023-01-23T09:32:57;15.23;;;7.97;;
11139;SDS011;5624;49.388;11.350;2023-01-23T09:35:23;15.20;;;8.57;;
11139;SDS011;5624;49.388;11.350;2023-01-23T09:37:49;11.63;;;6.93;;
11139;SDS011;5624;49.388;11.350;2023-01-23T09:40:24;13.50;;;8.77;;
11139;SDS011;5624;49.388;11.350;2023-01-23T09:42:53;12.57;;;6.83;;
11139;SDS011;5624;49.388;11.350;2023-01-23T09:45:23;12.07;;;7.57;;
11139;SDS011;5624;49.388;11.350;2023-01-23T09:51:19;11.33;;;6.80;;
11139;SDS011;5624;49.388;11.350;2023-01-23T09:53:51;13.53;;;7.30;;
11139;SDS011;5624;49.388;11.350;2023-01-23T09:56:23;10.37;;;6.40;;
11139;SDS011;5624;49.388;11.350;2023-01-23T09:59:28;10.13;;;6.63;;
11139;SDS011;5624;49.388;11.350;2023-01-23T10:02:04;14.50;;;8.37;;
11139;SDS011;5624;49.388;11.350;2023-01-23T10:04:39;10.93;;;7.57;;
11139;SDS011;5624;49.388;11.350;2023-01-23T10:13:00;13.43;;;7.43;;
11139;SDS011;5624;49.388;11.350;2023-01-23T10:18:43;12.57;;;7.47;;
11139;SDS011;5624;49.388;11.350;2023-01-23T10:21:21;12.60;;;9.07;;
11139;SDS011;5624;49.388;11.350;2023-01-23T10:26:40;11.13;;;7.40;;
11139;SDS011;5624;49.388;11.350;2023-01-23T10:31:45;12.90;;;8.17;;
11139;SDS011;5624;49.388;11.350;2023-01-23T10:39:27;9.77;;;6.63;;
11139;SDS011;5624;49.388;11.350;2023-01-23T10:41:58;11.57;;;6.80;;
11139;SDS011;5624;49.388;11.350;2023-01-23T10:44:24;10.97;;;7.03;;
11139;SDS011;5624;49.388;11.350;2023-01-23T10:46:51;11.30;;;7.10;;
11139;SDS011;5624;49.388;11.350;2023-01-23T10:49:27;9.80;;;6.60;;
11139;SDS011;5624;49.388;11.350;2023-01-23T10:51:56;11.07;;;6.37;;
11139;SDS011;5624;49.388;11.350;2023-01-23T10:54:26;11.23;;;7.20;;
11139;SDS011;5624;49.388;11.350;2023-01-23T10:57:03;12.40;;;7.03;;
11139;SDS011;5624;49.388;11.350;2023-01-23T10:59:33;11.80;;;6.70;;
11139;SDS011;5624;49.388;11.350;2023-01-23T11:04:39;10.10;;;6.73;;
11139;SDS011;5624;49.388;11.350;2023-01-23T11:10:17;9.33;;;7.23;;
11139;SDS011;5624;49.388;11.350;2023-01-23T11:12:45;13.20;;;7.60;;
11139;SDS011;5624;49.388;11.350;2023-01-23T11:15:20;12.10;;;8.10;;
11139;SDS011;5624;49.388;11.350;2023-01-23T11:17:46;12.23;;;7.73;;
11139;SDS011;5624;49.388;11.350;2023-01-23T11:28:34;10.40;;;6.33;;
11139;SDS011;5624;49.388;11.350;2023-01-23T11:31:14;10.63;;;6.90;;
11139;SDS011;5624;49.388;11.350;2023-01-23T11:36:44;8.97;;;5.93;;
11139;SDS011;5624;49.388;11.350;2023-01-23T11:39:36;9.70;;;6.37;;
11139;SDS011;5624;49.388;11.350;2023-01-23T11:42:11;10.60;;;6.80;;
11139;SDS011;5624;49.388;11.350;2023-01-23T11:44:38;9.43;;;6.77;;
11139;SDS011;5624;49.388;11.350;2023-01-23T11:49:57;9.03;;;5.60;;
11139;SDS011;5624;49.388;11.350;2023-01-23T12:05:57;10.47;;;6.40;;
11139;SDS011;5624;49.388;11.350;2023-01-23T12:11:39;12.53;;;8.03;;
11139;SDS011;5624;49.388;11.350;2023-01-23T12:20:29;11.07;;;6.77;;
11139;SDS011;5624;49.388;11.350;2023-01-23T12:22:48;10.70;;;7.87;;
11139;SDS011;5624;49.388;11.350;2023-01-23T12:27:56;10.10;;;6.10;;
11139;SDS011;5624;49.388;11.350;2023-01-23T12:33:25;8.40;;;5.57;;
11139;SDS011;5624;49.388;11.350;2023-01-23T12:41:51;8.43;;;5.83;;
11139;SDS011;5624;49.388;11.350;2023-01-23T12:44:32;8.37;;;6.00;;
11139;SDS011;5624;49.388;11.350;2023-01-23T12:47:04;10.47;;;5.63;;
11139;SDS011;5624;49.388;11.350;2023-01-23T12:49:43;8.27;;;4.60;;
11139;SDS011;5624;49.388;11.350;2023-01-23T12:57:42;7.17;;;5.23;;
11139;SDS011;5624;49.388;11.350;2023-01-23T13:00:22;7.70;;;5.40;;
11139;SDS011;5624;49.388;11.350;2023-01-23T13:03:18;9.17;;;5.63;;
11139;SDS011;5624;49.388;11.350;2023-01-23T13:05:53;6.30;;;4.60;;
11139;SDS011;5624;49.388;11.350;2023-01-23T13:13:54;8.57;;;5.63;;
11139;SDS011;5624;49.388;11.350;2023-01-23T13:16:19;7.07;;;4.90;;
11139;SDS011;5624;49.388;11.350;2023-01-23T13:18:54;6.97;;;4.43;;
11139;SDS011;5624;49.388;11.350;2023-01-23T13:24:46;9.77;;;5.70;;
11139;SDS011;5624;49.388;11.350;2023-01-23T13:27:40;7.97;;;5.43;;
11139;SDS011;5624;49.388;11.350;2023-01-23T13:32:47;8.23;;;5.60;;
11139;SDS011;5624;49.388;11.350;2023-01-23T13:52:00;7.10;;;4.43;;
11139;SDS011;5624;49.388;11.350;2023-01-23T13:54:29;7.93;;;5.30;;
11139;SDS011;5624;49.388;11.350;2023-01-23T13:57:15;6.37;;;4.33;;
11139;SDS011;5624;49.388;11.350;2023-01-23T13:59:44;5.87;;;4.20;;
11139;SDS011;5624;49.388;11.350;2023-01-23T14:05:21;8.63;;;5.43;;
11139;SDS011;5624;49.388;11.350;2023-01-23T14:07:58;7.37;;;5.37;;
11139;SDS011;5624;49.388;11.350;2023-01-23T14:10:33;6.47;;;4.77;;
11139;SDS011;5624;49.388;11.350;2023-01-23T14:13:04;5.57;;;4.43;;
11139;SDS011;5624;49.388;11.350;2023-01-23T14:15:34;6.43;;;4.90;;
11139;SDS011;5624;49.388;11.350;2023-01-23T14:21:13;5.83;;;4.90;;
11139;SDS011;5624;49.388;11.350;2023-01-23T14:23:47;5.90;;;4.23;;
11139;SDS011;5624;49.388;11.350;2023-01-23T14:26:23;7.43;;;4.30;;
11139;SDS011;5624;49.388;11.350;2023-01-23T14:28:51;7.00;;;4.47;;
11139;SDS011;5624;49.388;11.350;2023-01-23T14:31:22;6.87;;;4.70;;
11139;SDS011;5624;49.388;11.350;2023-01-23T14:34:25;6.73;;;3.87;;
11139;SDS011;5624;49.388;11.350;2023-01-23T14:36:49;7.20;;;4.87;;
11139;SDS011;5624;49.388;11.350;2023-01-23T14:39:27;6.40;;;4.27;;
11139;SDS011;5624;49.388;11.350;2023-01-23T14:41:55;7.40;;;4.83;;
11139;SDS011;5624;49.388;11.350;2023-01-23T14:44:23;8.53;;;4.87;;
11139;SDS011;5624;49.388;11.350;2023-01-23T14:46:53;7.27;;;4.93;;
11139;SDS011;5624;49.388;11.350;2023-01-23T14:49:23;6.73;;;4.50;;
11139;SDS011;5624;49.388;11.350;2023-01-23T14:52:00;7.53;;;5.37;;
11139;SDS011;5624;49.388;11.350;2023-01-23T14:54:30;6.47;;;4.90;;
11139;SDS011;5624;49.388;11.350;2023-01-23T14:56:57;7.77;;;5.40;;
11139;SDS011;5624;49.388;11.350;2023-01-23T15:01:53;6.40;;;4.43;;
11139;SDS011;5624;49.388;11.350;2023-01-23T15:04:21;7.87;;;5.40;;
11139;SDS011;5624;49.388;11.350;2023-01-23T15:06:51;6.50;;;5.00;;
11139;SDS011;5624;49.388;11.350;2023-01-23T15:09:21;6.53;;;4.70;;
11139;SDS011;5624;49.388;11.350;2023-01-23T15:11:51;8.57;;;5.67;;
11139;SDS011;5624;49.388;11.350;2023-01-23T15:14:22;7.30;;;5.37;;
11139;SDS011;5624;49.388;11.350;2023-01-23T15:16:50;6.37;;;4.83;;
11139;SDS011;5624;49.388;11.350;2023-01-23T15:19:24;6.17;;;4.33;;
11139;SDS011;5624;49.388;11.350;2023-01-23T15:21:50;9.03;;;5.27;;
11139;SDS011;5624;49.388;11.350;2023-01-23T15:24:43;7.97;;;5.17;;
11139;SDS011;5624;49.388;11.350;2023-01-23T15:32:58;8.77;;;5.87;;
11139;SDS011;5624;49.388;11.350;2023-01-23T15:35:30;11.03;;;5.93;;
11139;SDS011;5624;49.388;11.350;2023-01-23T15:38:00;11.63;;;6.30;;
11139;SDS011;5624;49.388;11.350;2023-01-23T15:40:29;9.10;;;5.87;;
11139;SDS011;5624;49.388;11.350;2023-01-23T15:43:01;9.53;;;6.13;;
11139;SDS011;5624;49.388;11.350;2023-01-23T15:45:35;7.67;;;5.87;;
11139;SDS011;5624;49.388;11.350;2023-01-23T15:48:01;9.47;;;6.10;;
11139;SDS011;5624;49.388;11.350;2023-01-23T15:50:27;9.93;;;7.13;;
11139;SDS011;5624;49.388;11.350;2023-01-23T15:52:53;11.57;;;6.67;;
11139;SDS011;5624;49.388;11.350;2023-01-23T15:55:20;9.00;;;6.60;;
11139;SDS011;5624;49.388;11.350;2023-01-23T15:57:49;10.67;;;7.37;;
11139;SDS011;5624;49.388;11.350;2023-01-23T16:00:24;10.40;;;7.60;;
11139;SDS011;5624;49.388;11.350;2023-01-23T16:02:53;11.50;;;7.83;;
11139;SDS011;5624;49.388;11.350;2023-01-23T16:05:21;12.30;;;7.33;;
11139;SDS011;5624;49.388;11.350;2023-01-23T16:07:52;10.90;;;7.10;;
11139;SDS011;5624;49.388;11.350;2023-01-23T16:10:25;12.47;;;7.27;;
11139;SDS011;5624;49.388;11.350;2023-01-23T16:12:54;11.60;;;7.53;;
11139;SDS011;5624;49.388;11.350;2023-01-23T16:15:23;11.40;;;7.43;;
11139;SDS011;5624;49.388;11.350;2023-01-23T16:17:50;11.10;;;8.00;;
11139;SDS011;5624;49.388;11.350;2023-01-23T16:20:20;9.13;;;6.77;;
11139;SDS011;5624;49.388;11.350;2023-01-23T16:23:03;12.60;;;7.53;;
11139;SDS011;5624;49.388;11.350;2023-01-23T16:25:35;10.93;;;7.27;;
11139;SDS011;5624;49.388;11.350;2023-01-23T16:28:09;9.33;;;6.77;;
11139;SDS011;5624;49.388;11.350;2023-01-23T16:30:39;11.23;;;7.33;;
11139;SDS011;5624;49.388;11.350;2023-01-23T16:33:05;13.47;;;9.17;;
11139;SDS011;5624;49.388;11.350;2023-01-23T16:35:30;12.70;;;7.60;;
11139;SDS011;5624;49.388;11.350;2023-01-23T16:37:56;11.37;;;8.87;;
11139;SDS011;5624;49.388;11.350;2023-01-23T16:40:24;12.53;;;7.80;;
11139;SDS011;5624;49.388;11.350;2023-01-23T16:42:52;9.00;;;5.80;;
11139;SDS011;5624;49.388;11.350;2023-01-23T16:47:46;12.67;;;7.47;;
11139;SDS011;5624;49.388;11.350;2023-01-23T16:50:14;14.07;;;8.17;;
11139;SDS011;5624;49.388;11.350;2023-01-23T16:52:41;11.63;;;7.47;;
11139;SDS011;5624;49.388;11.350;2023-01-23T16:55:21;10.13;;;7.57;;